»·PEaware :: DAL2712 KLAX-KLAS

DAL2712 :: KLAX-KLAS

FLIGHT INFORMATION

Flight Status: Arrived
Operator:
Delta Air Lines
More flights by this operator :: More flights under this callsign
Pilot: Jac C. (16067)
Aircraft: MCDONNELL-DOUGLAS MD-88
(MD88)
More flights by this aircraft type
Origin: KLAX Los Angeles Intl
United States
Destination: KLAS McCarran Intl
United States
More flights between these airports :: More routes between these airports
Route: +ORCKA2 MISEN KEPEC6
File this flight plan on PilotEdge
Remarks:
Altitude:
(Current/Filed)
25,000ft
Speed:
(Current/Filed)
393kts
Departed: 15-Feb-18 04:47 PM
Arrived: 15-Feb-18 05:34 PM
Distance/Time
Traveled:
205nm/0:46
Distance/Time
To Go:
Arrived

Flight Plot

Page will automatically refresh every two minutes.

Flight plan parsing failed; only flown route is shown


Map Options




Map Legend


Flown Route
Filed Route
Departure Airport
Arrival Airport
Navaid (VOR, NDB)
Fix

Horizontal Profiles

Position Reports

Time Latitude Longitude Heading Altitude Ground
Speed
15-Feb-18 16:23 33.941468 -118.401420 264 118ft 0kts
15-Feb-18 16:24 33.941468 -118.401420 264 118ft 0kts
15-Feb-18 16:25 33.941468 -118.401420 264 118ft 0kts
15-Feb-18 16:26 33.941468 -118.401420 264 118ft 0kts
15-Feb-18 16:27 33.941468 -118.401420 264 118ft 0kts
15-Feb-18 16:28 33.941468 -118.401420 264 118ft 0kts
15-Feb-18 16:29 33.941468 -118.401420 264 118ft 0kts
15-Feb-18 16:30 33.941468 -118.401420 264 118ft 0kts
15-Feb-18 16:31 33.941468 -118.401420 264 118ft 0kts
15-Feb-18 16:32 33.941468 -118.401420 264 118ft 0kts
15-Feb-18 16:33 33.941468 -118.401420 264 118ft 0kts
15-Feb-18 16:34 33.941468 -118.401420 264 118ft 0kts
15-Feb-18 16:35 33.941468 -118.401420 264 118ft 0kts
15-Feb-18 16:36 33.941468 -118.401420 264 117ft 0kts
15-Feb-18 16:37 33.941468 -118.401420 264 117ft 0kts
15-Feb-18 16:38 33.941468 -118.401420 264 117ft 0kts
15-Feb-18 16:39 33.941468 -118.401420 264 117ft 0kts
15-Feb-18 16:40 33.941468 -118.401420 264 117ft 0kts
15-Feb-18 16:41 33.941468 -118.401420 264 117ft 0kts
15-Feb-18 16:42 33.941468 -118.401420 264 117ft 0kts
15-Feb-18 16:43 33.941468 -118.401420 264 117ft 0kts
15-Feb-18 16:44 33.941693 -118.400923 203 116ft 2kts
15-Feb-18 16:45 33.941951 -118.400890 172 116ft 0kts
15-Feb-18 16:46 33.941951 -118.400890 172 116ft 0kts
15-Feb-18 16:47 33.941951 -118.400890 172 116ft 0kts
15-Feb-18 16:48 33.940776 -118.400737 173 116ft 7kts
15-Feb-18 16:49 33.938823 -118.399650 89 114ft 10kts
15-Feb-18 16:50 33.939364 -118.394134 82 106ft 17kts
15-Feb-18 16:51 33.939989 -118.388102 83 101ft 16kts
15-Feb-18 16:52 33.940549 -118.382571 83 98ft 15kts
15-Feb-18 16:53 33.939784 -118.380779 259 98ft 10kts
15-Feb-18 16:54 33.936221 -118.415911 264 1415ft 160kts
15-Feb-18 16:55 33.926386 -118.479640 247 3518ft 227kts
15-Feb-18 16:56 33.900773 -118.551459 248 4139ft 229kts
15-Feb-18 16:57 33.879960 -118.608898 248 4964ft 218kts
15-Feb-18 16:58 33.833319 -118.626765 137 5020ft 251kts
15-Feb-18 16:59 33.833267 -118.554702 48 7076ft 285kts
15-Feb-18 17:00 33.887368 -118.483788 42 10287ft 301kts
15-Feb-18 17:01 33.952480 -118.409860 47 12659ft 341kts
15-Feb-18 17:02 34.004290 -118.308674 56 15075ft 368kts
15-Feb-18 17:03 34.054706 -118.217897 52 16872ft 387kts
15-Feb-18 17:04 34.116659 -118.108483 53 18737ft 407kts
15-Feb-18 17:05 34.181280 -117.993537 53 20504ft 423kts
15-Feb-18 17:06 34.243478 -117.882503 53 22078ft 433kts
15-Feb-18 17:07 34.307182 -117.768909 53 23374ft 446kts
15-Feb-18 17:08 34.378567 -117.644440 51 24726ft 458kts
15-Feb-18 17:09 34.452693 -117.518644 51 25216ft 461kts
15-Feb-18 17:10 34.526849 -117.392531 50 25217ft 461kts
15-Feb-18 17:11 34.600950 -117.266705 51 25207ft 460kts
15-Feb-18 17:12 34.675027 -117.141144 50 25209ft 459kts
15-Feb-18 17:13 34.749337 -117.015402 50 25210ft 459kts
15-Feb-18 17:14 34.823660 -116.889833 49 25211ft 456kts
15-Feb-18 17:15 34.897348 -116.765569 49 25212ft 455kts
15-Feb-18 17:16 34.969869 -116.639614 51 25214ft 455kts
15-Feb-18 17:17 35.041234 -116.512538 50 25220ft 454kts
15-Feb-18 17:18 35.114725 -116.388750 43 25227ft 448kts
15-Feb-18 17:19 35.200109 -116.280796 40 25217ft 445kts
15-Feb-18 17:20 35.285081 -116.171890 39 25223ft 444kts
15-Feb-18 17:21 35.371396 -116.063945 40 25220ft 443kts
15-Feb-18 17:22 35.456920 -115.955881 40 24266ft 444kts
15-Feb-18 17:23 35.539332 -115.851700 40 20915ft 412kts
15-Feb-18 17:24 35.615955 -115.755060 40 17757ft 381kts
15-Feb-18 17:25 35.683555 -115.669765 41 15066ft 319kts
15-Feb-18 17:26 35.743254 -115.593466 40 13773ft 303kts
15-Feb-18 17:27 35.817457 -115.570087 357 13392ft 282kts
15-Feb-18 17:28 35.896826 -115.567374 0 13204ft 287kts
15-Feb-18 17:29 35.974313 -115.550357 39 12944ft 296kts
15-Feb-18 17:30 36.005421 -115.461630 69 11890ft 268kts
15-Feb-18 17:31 36.030098 -115.376701 77 10992ft 258kts
15-Feb-18 17:32 36.025550 -115.289591 94 10520ft 267kts
15-Feb-18 17:33 36.018320 -115.197093 94 8969ft 267kts
15-Feb-18 17:34 36.012150 -115.110938 94 8066ft 248kts
15-Feb-18 17:35 36.005260 -115.025627 94 6827ft 243kts
15-Feb-18 17:36 36.004371 -114.946092 50 5159ft 227kts
15-Feb-18 17:37 36.057155 -114.935003 1 4853ft 181kts
15-Feb-18 17:38 36.080405 -114.982964 258 4322ft 211kts
15-Feb-18 17:39 36.073136 -115.045465 271 3203ft 161kts
15-Feb-18 17:40 36.073609 -115.099729 272 2451ft 152kts
15-Feb-18 17:41 36.073614 -115.146026 272 2103ft 29kts
15-Feb-18 17:42 36.074746 -115.150667 303 2119ft 0kts
15-Feb-18 17:43 36.076625 -115.152142 337 2121ft 13kts
15-Feb-18 17:44 36.077505 -115.152621 344 2121ft 0kts
15-Feb-18 17:45 36.077937 -115.149681 94 2109ft 15kts
15-Feb-18 17:46 36.078622 -115.145666 13 2094ft 6kts
15-Feb-18 17:47 36.079701 -115.146231 340 2093ft 1kts
15-Feb-18 17:48 36.079713 -115.146235 341 2093ft 0kts

Navigation Log

Ident Type
Flight plan parsing failed, navigation log unavailable